createdAt,value
2022-09-15T00:01:35.678Z,18.86
2022-09-15T00:16:37.395Z,18.27
2022-09-15T00:31:39.921Z,17.84
2022-09-15T00:46:44.084Z,18.29
2022-09-15T01:01:47.264Z,18.30
2022-09-15T01:16:48.896Z,18.19
2022-09-15T01:32:16.134Z,17.99
2022-09-15T01:47:19.338Z,18.55
2022-09-15T02:02:30.004Z,18.69
2022-09-15T02:17:35.500Z,17.58
2022-09-15T02:32:38.906Z,17.26
2022-09-15T02:47:40.335Z,17.91
2022-09-15T03:02:42.834Z,18.04
2022-09-15T03:17:46.293Z,18.22
2022-09-15T03:32:48.754Z,17.36
2022-09-15T03:47:50.247Z,17.35
2022-09-15T04:02:51.820Z,17.24
2022-09-15T04:17:53.508Z,17.46
2022-09-15T04:32:54.943Z,18.16
2022-09-15T04:47:56.436Z,20.09
2022-09-15T05:02:58.572Z,19.86
2022-09-15T05:18:00.335Z,20.93
2022-09-15T05:33:01.819Z,20.71
2022-09-15T05:48:04.026Z,22.54
2022-09-15T06:03:05.541Z,22.69
2022-09-15T06:18:07.007Z,24.48
2022-09-15T06:33:08.447Z,23.17
2022-09-15T06:48:24.046Z,26.06
2022-09-15T07:03:26.524Z,25.40
2022-09-15T07:18:28.116Z,27.34
2022-09-15T07:33:29.621Z,26.67
2022-09-15T07:48:31.971Z,27.17
2022-09-15T08:03:33.614Z,26.94
2022-09-15T08:18:35.666Z,26.37
2022-09-15T08:33:39.842Z,27.93
2022-09-15T08:49:11.077Z,27.69
2022-09-15T09:04:16.396Z,27.42
2022-09-15T09:19:38.305Z,29.12
2022-09-15T09:34:45.331Z,28.63
2022-09-15T09:49:50.114Z,29.05
2022-09-15T10:04:53.139Z,28.83
2022-09-15T10:19:55.932Z,31.41
2022-09-15T10:35:00.577Z,30.06
2022-09-15T10:50:24.237Z,33.60
2022-09-15T11:05:28.760Z,32.11
2022-09-15T11:20:45.617Z,30.65
2022-09-15T11:35:47.066Z,32.44
2022-09-15T11:50:49.977Z,32.77
2022-09-15T12:05:56.319Z,32.90
2022-09-15T12:21:16.111Z,33.68
2022-09-15T12:36:29.893Z,33.52
2022-09-15T12:51:31.560Z,33.67
2022-09-15T13:06:38.507Z,32.84
2022-09-15T13:21:42.234Z,33.42
2022-09-15T13:52:37.453Z,33.54
2022-09-15T14:07:39.125Z,32.03
2022-09-15T14:22:40.746Z,32.56
2022-09-15T14:37:47.203Z,32.04
2022-09-15T14:52:53.428Z,31.81
2022-09-15T15:07:55.620Z,30.73
2022-09-15T15:23:09.160Z,30.50
2022-09-15T15:38:18.185Z,29.57
2022-09-15T15:53:19.719Z,28.85
2022-09-15T16:08:29.708Z,26.68
2022-09-15T16:23:31.734Z,26.41
2022-09-15T16:38:33.828Z,26.88
2022-09-15T16:53:35.311Z,27.52
2022-09-15T17:08:36.777Z,27.03
2022-09-15T17:23:38.990Z,27.44
2022-09-15T17:38:41.217Z,25.68
2022-09-15T17:53:42.863Z,25.93
2022-09-15T18:08:44.465Z,26.03
2022-09-15T18:23:45.938Z,26.27
2022-09-15T18:38:47.660Z,26.39
2022-09-15T18:53:53.394Z,26.08
2022-09-15T19:08:55.659Z,25.07
2022-09-15T19:23:58.099Z,24.90
2022-09-15T19:39:02.578Z,24.92
2022-09-15T19:54:04.135Z,25.02
2022-09-15T20:09:06.396Z,24.69
2022-09-15T20:24:07.885Z,26.07
2022-09-15T20:39:13.040Z,26.31
2022-09-15T20:54:14.761Z,26.28
2022-09-15T21:09:16.236Z,23.98
2022-09-15T21:24:17.729Z,23.27
2022-09-15T21:39:19.323Z,24.60
2022-09-15T21:54:20.874Z,24.14
2022-09-15T22:16:22.311Z,23.47
2022-09-15T22:31:24.318Z,23.08
2022-09-15T22:46:26.046Z,23.14
2022-09-15T23:01:28.507Z,22.51
2022-09-15T23:16:30.667Z,22.66
2022-09-15T23:31:32.272Z,21.76
2022-09-15T23:46:34.075Z,21.93
